THY4154 LTFJ-LTFC
Flight info
| Callsign | THY4154 |
|---|---|
| Flight time | N/A |
| Altitude | 27000 |
| Route | ROXUK UN617 ERVAG UT305 TEKDO UT35 BABSA |
| Aircraft | B738/M-SDE2E3FGHIRWXY/LB1 |
Departure
| Time | N/A |
|---|---|
| Airport | Istanbul Sabiha Gökçen International Airport (LTFJ) |
Arrival
| Time | 2026-04-24 11:28 |
|---|---|
| Airport | Süleyman Demirel International Airport (LTFC) |
| Time | Latitude | Longitude | Altitude | Speed | Heading |
|---|---|---|---|---|---|
| 2026-04-24 11:02 | 39.23868 | 30.09935 | 26969 ft | 462 kts | 168° |
| 2026-04-24 11:02 | 39.20858 | 30.11388 | 26961 ft | 462 kts | 168° |
| 2026-04-24 11:02 | 39.17850 | 30.12839 | 26968 ft | 462 kts | 168° |
| 2026-04-24 11:02 | 39.14840 | 30.14289 | 26985 ft | 462 kts | 168° |
| 2026-04-24 11:03 | 39.11823 | 30.15740 | 26960 ft | 463 kts | 168° |
| 2026-04-24 11:03 | 39.08798 | 30.17140 | 26967 ft | 459 kts | 172° |
| 2026-04-24 11:03 | 39.05721 | 30.18028 | 26960 ft | 449 kts | 180° |
| 2026-04-24 11:03 | 39.02650 | 30.18308 | 26906 ft | 437 kts | 189° |
| 2026-04-24 11:04 | 38.99668 | 30.18202 | 26619 ft | 421 kts | 190° |
| 2026-04-24 11:04 | 38.96783 | 30.18067 | 26349 ft | 409 kts | 191° |
| 2026-04-24 11:04 | 38.94019 | 30.17935 | 26089 ft | 397 kts | 191° |
| 2026-04-24 11:04 | 38.91257 | 30.17810 | 25822 ft | 385 kts | 191° |
| 2026-04-24 11:05 | 38.88633 | 30.17704 | 25547 ft | 368 kts | 191° |
| 2026-04-24 11:05 | 38.86121 | 30.17610 | 25286 ft | 354 kts | 191° |
| 2026-04-24 11:05 | 38.83719 | 30.17518 | 25043 ft | 348 kts | 192° |
| 2026-04-24 11:05 | 38.81304 | 30.17421 | 24801 ft | 347 kts | 192° |
| 2026-04-24 11:06 | 38.78881 | 30.17322 | 24561 ft | 348 kts | 192° |
| 2026-04-24 11:06 | 38.76457 | 30.17227 | 24327 ft | 348 kts | 192° |
| 2026-04-24 11:06 | 38.74034 | 30.17135 | 24096 ft | 349 kts | 191° |
| 2026-04-24 11:06 | 38.71609 | 30.17045 | 23860 ft | 349 kts | 191° |
| 2026-04-24 11:07 | 38.66754 | 30.16869 | 23367 ft | 349 kts | 191° |
| 2026-04-24 11:07 | 38.64328 | 30.16783 | 23067 ft | 346 kts | 191° |
| 2026-04-24 11:07 | 38.61933 | 30.16701 | 22714 ft | 341 kts | 191° |
| 2026-04-24 11:08 | 38.59578 | 30.16620 | 22351 ft | 337 kts | 191° |
| 2026-04-24 11:08 | 38.57246 | 30.16537 | 21962 ft | 334 kts | 191° |
| 2026-04-24 11:08 | 38.54932 | 30.16454 | 21596 ft | 331 kts | 191° |
| 2026-04-24 11:08 | 38.52643 | 30.16372 | 21232 ft | 328 kts | 191° |
| 2026-04-24 11:09 | 38.50366 | 30.16290 | 20872 ft | 326 kts | 191° |
| 2026-04-24 11:09 | 38.48109 | 30.16209 | 20530 ft | 324 kts | 191° |
| 2026-04-24 11:09 | 38.45865 | 30.16129 | 20170 ft | 322 kts | 191° |
| 2026-04-24 11:09 | 38.43630 | 30.16048 | 19813 ft | 320 kts | 191° |
| 2026-04-24 11:10 | 38.41409 | 30.15968 | 19465 ft | 319 kts | 191° |
| 2026-04-24 11:10 | 38.39197 | 30.15890 | 19116 ft | 318 kts | 191° |
| 2026-04-24 11:10 | 38.36988 | 30.15811 | 18765 ft | 317 kts | 191° |
| 2026-04-24 11:10 | 38.34779 | 30.15809 | 18399 ft | 321 kts | 184° |
| 2026-04-24 11:11 | 38.32550 | 30.16279 | 18022 ft | 330 kts | 173° |
| 2026-04-24 11:11 | 38.30364 | 30.17229 | 17662 ft | 332 kts | 168° |
| 2026-04-24 11:11 | 38.28201 | 30.18253 | 17289 ft | 331 kts | 168° |
| 2026-04-24 11:11 | 38.26056 | 30.19258 | 16970 ft | 327 kts | 168° |
| 2026-04-24 11:12 | 38.23920 | 30.20245 | 16619 ft | 326 kts | 168° |
| 2026-04-24 11:12 | 38.21797 | 30.21226 | 16275 ft | 323 kts | 167° |
| 2026-04-24 11:12 | 38.19683 | 30.22200 | 15942 ft | 321 kts | 167° |
| 2026-04-24 11:12 | 38.17589 | 30.23164 | 15594 ft | 319 kts | 167° |
| 2026-04-24 11:13 | 38.15502 | 30.24123 | 15272 ft | 318 kts | 167° |
| 2026-04-24 11:13 | 38.13428 | 30.25076 | 14975 ft | 316 kts | 166° |
| 2026-04-24 11:13 | 38.11374 | 30.26020 | 14689 ft | 313 kts | 166° |
| 2026-04-24 11:13 | 38.09331 | 30.26958 | 14392 ft | 311 kts | 166° |
| 2026-04-24 11:14 | 38.07297 | 30.27890 | 14079 ft | 310 kts | 166° |
| 2026-04-24 11:14 | 38.05268 | 30.28819 | 13759 ft | 309 kts | 166° |
| 2026-04-24 11:14 | 38.03247 | 30.29722 | 13425 ft | 306 kts | 170° |
| 2026-04-24 11:14 | 38.01212 | 30.29923 | 13096 ft | 291 kts | 194° |
| 2026-04-24 11:15 | 37.99330 | 30.29183 | 12857 ft | 280 kts | 208° |
| 2026-04-24 11:15 | 37.97584 | 30.28131 | 12532 ft | 277 kts | 210° |
| 2026-04-24 11:15 | 37.95861 | 30.27050 | 12236 ft | 275 kts | 210° |
| 2026-04-24 11:15 | 37.94153 | 30.25975 | 11936 ft | 273 kts | 210° |
| 2026-04-24 11:16 | 37.92451 | 30.24910 | 11621 ft | 272 kts | 210° |
| 2026-04-24 11:16 | 37.90754 | 30.23855 | 11304 ft | 271 kts | 209° |
| 2026-04-24 11:16 | 37.89067 | 30.22810 | 11011 ft | 269 kts | 209° |
| 2026-04-24 11:16 | 37.87413 | 30.21791 | 10893 ft | 260 kts | 209° |
| 2026-04-24 11:17 | 37.85811 | 30.20806 | 10752 ft | 252 kts | 209° |
| 2026-04-24 11:17 | 37.84258 | 30.19853 | 10659 ft | 245 kts | 209° |
| 2026-04-24 11:17 | 37.82740 | 30.18921 | 10533 ft | 238 kts | 209° |
| 2026-04-24 11:17 | 37.81275 | 30.18023 | 10423 ft | 230 kts | 209° |
| 2026-04-24 11:18 | 37.79933 | 30.16997 | 10334 ft | 222 kts | 224° |
| 2026-04-24 11:18 | 37.78810 | 30.15656 | 10242 ft | 222 kts | 225° |
| 2026-04-24 11:18 | 37.77690 | 30.14288 | 10005 ft | 224 kts | 225° |
| 2026-04-24 11:18 | 37.76597 | 30.12903 | 9773 ft | 221 kts | 229° |
| 2026-04-24 11:19 | 37.75603 | 30.11468 | 9628 ft | 210 kts | 230° |
| 2026-04-24 11:19 | 37.74698 | 30.10118 | 9538 ft | 193 kts | 233° |
| 2026-04-24 11:19 | 37.73978 | 30.08748 | 9219 ft | 184 kts | 245° |
| 2026-04-24 11:19 | 37.73469 | 30.07278 | 8722 ft | 186 kts | 252° |
| 2026-04-24 11:20 | 37.73191 | 30.05690 | 8307 ft | 186 kts | 266° |
| 2026-04-24 11:20 | 37.73025 | 30.04100 | 7903 ft | 182 kts | 245° |
| 2026-04-24 11:20 | 37.72267 | 30.02824 | 7492 ft | 185 kts | 221° |
| 2026-04-24 11:20 | 37.71103 | 30.02121 | 7147 ft | 190 kts | 193° |
| 2026-04-24 11:21 | 37.69783 | 30.02272 | 7021 ft | 196 kts | 163° |
| 2026-04-24 11:21 | 37.68665 | 30.03331 | 6979 ft | 210 kts | 128° |
| 2026-04-24 11:21 | 37.68186 | 30.05079 | 6960 ft | 216 kts | 93° |
| 2026-04-24 11:21 | 37.68501 | 30.06918 | 6747 ft | 217 kts | 68° |
| 2026-04-24 11:22 | 37.69134 | 30.08638 | 6496 ft | 212 kts | 63° |
| 2026-04-24 11:22 | 37.69787 | 30.10327 | 6102 ft | 216 kts | 63° |
| 2026-04-24 11:22 | 37.70423 | 30.12000 | 6006 ft | 205 kts | 64° |
| 2026-04-24 11:22 | 37.71027 | 30.13610 | 5994 ft | 202 kts | 65° |
| 2026-04-24 11:23 | 37.71545 | 30.15260 | 5992 ft | 201 kts | 70° |
| 2026-04-24 11:23 | 37.72202 | 30.16816 | 5988 ft | 203 kts | 48° |
| 2026-04-24 11:23 | 37.73134 | 30.18182 | 6010 ft | 208 kts | 48° |
| 2026-04-24 11:23 | 37.74059 | 30.19605 | 6007 ft | 210 kts | 48° |
| 2026-04-24 11:24 | 37.74981 | 30.21000 | 6000 ft | 202 kts | 48° |
| 2026-04-24 11:24 | 37.75872 | 30.22334 | 5764 ft | 195 kts | 48° |
| 2026-04-24 11:24 | 37.76725 | 30.23606 | 5481 ft | 185 kts | 47° |
| 2026-04-24 11:24 | 37.77529 | 30.24806 | 5260 ft | 173 kts | 47° |
| 2026-04-24 11:25 | 37.78316 | 30.25977 | 4970 ft | 175 kts | 46° |
| 2026-04-24 11:25 | 37.79084 | 30.27124 | 4720 ft | 172 kts | 46° |
| 2026-04-24 11:25 | 37.79846 | 30.28260 | 4450 ft | 168 kts | 47° |
| 2026-04-24 11:25 | 37.80598 | 30.29379 | 4203 ft | 166 kts | 47° |
| 2026-04-24 11:26 | 37.81337 | 30.30483 | 3956 ft | 162 kts | 48° |
| 2026-04-24 11:26 | 37.82064 | 30.31564 | 3735 ft | 162 kts | 48° |
| 2026-04-24 11:26 | 37.82791 | 30.32655 | 3549 ft | 163 kts | 48° |
| 2026-04-24 11:26 | 37.83536 | 30.33749 | 3339 ft | 162 kts | 49° |
| 2026-04-24 11:27 | 37.84261 | 30.34840 | 3105 ft | 162 kts | 50° |
| 2026-04-24 11:27 | 37.84988 | 30.35922 | 2849 ft | 157 kts | 51° |
| 2026-04-24 11:27 | 37.85599 | 30.36829 | 2842 ft | 106 kts | 49° |
| 2026-04-24 11:27 | 37.85955 | 30.37346 | 2842 ft | 60 kts | 49° |
| 2026-04-24 11:28 | 37.86182 | 30.37684 | 2843 ft | 48 kts | 50° |
| 2026-04-24 11:28 | 37.86381 | 30.37990 | 2841 ft | 37 kts | 49° |
| 2026-04-24 11:28 | 37.86513 | 30.38116 | 2840 ft | 9 kts | 133° |
| 2026-04-24 11:28 | 37.86455 | 30.38084 | 2838 ft | 11 kts | 222° |
| 2026-04-24 11:29 | 37.86396 | 30.37998 | 2841 ft | 15 kts | 227° |
| 2026-04-24 11:29 | 37.86312 | 30.37883 | 2841 ft | 20 kts | 227° |
| 2026-04-24 11:29 | 37.86207 | 30.37738 | 2843 ft | 24 kts | 227° |
| 2026-04-24 11:29 | 37.86092 | 30.37563 | 2842 ft | 28 kts | 231° |
| 2026-04-24 11:30 | 37.85963 | 30.37370 | 2841 ft | 28 kts | 229° |
| 2026-04-24 11:30 | 37.85839 | 30.37185 | 2841 ft | 27 kts | 230° |
| 2026-04-24 11:30 | 37.85720 | 30.37014 | 2841 ft | 25 kts | 229° |
| 2026-04-24 11:30 | 37.85718 | 30.36839 | 2842 ft | 23 kts | 317° |
| 2026-04-24 11:31 | 37.85814 | 30.36694 | 2842 ft | 17 kts | 304° |
| 2026-04-24 11:31 | 37.85849 | 30.36652 | 2843 ft | 0 kts | 319° |
| 2026-04-24 11:33 | 37.85849 | 30.36653 | 2843 ft | 0 kts | 319° |